Enderby, Canada
Current Conditions -  °F | °C
As of 5:00 PM on Tuesday 21 Oct 2014 (Local Time) from CYLW Reporting Station
Scattered Clouds Scattered Clouds  
Wind Chill: 61°   Ceiling: Unl
Heat Index: 61°   Visibility: 9mi
Dew Point: 43°   Wind: 5mph
Humidity: 52%   Direction: 230°SW
Pressure: 29.81"   Gusts: NA
Location:  50.55°N, 119.14°W
Report Text: CYLW 220000Z AUTO 23004KT 9SM SCT075 16/06 A2981 RMK SLP099 DENSITY ALT 1900FT
Loading
Personal Weather Stations






























Interactive Weather Map
Tropical Storm Tracking
New forecast layout! Learn more

10-Day Weather Forecast

Advertisements
Track Severe Weather on mobile